createdAt,value
2023-02-27T00:00:14.587Z,59.12
2023-02-27T00:01:19.858Z,58.93
2023-02-27T00:02:21.798Z,59.26
2023-02-27T00:03:25.562Z,58.98
2023-02-27T00:04:47.140Z,59.18
2023-02-27T00:06:09.620Z,59.45
2023-02-27T00:07:12.594Z,59.34
2023-02-27T00:08:15.148Z,59.27
2023-02-27T00:09:21.934Z,59.48
2023-02-27T00:10:27.854Z,59.63
2023-02-27T00:11:29.673Z,59.64
2023-02-27T00:12:37.468Z,59.23
2023-02-27T00:13:39.886Z,59.35
2023-02-27T00:14:42.376Z,59.56
2023-02-27T00:15:45.910Z,59.56
2023-02-27T00:16:49.101Z,59.41
2023-02-27T00:18:53.665Z,59.80
2023-02-27T00:19:55.437Z,59.92
2023-02-27T00:20:58.008Z,59.72
2023-02-27T00:21:59.524Z,60.11
2023-02-27T00:23:03.358Z,59.93
2023-02-27T00:24:06.734Z,60.14
2023-02-27T00:25:09.478Z,59.95
2023-02-27T00:26:11.982Z,59.79
2023-02-27T00:27:13.576Z,60.02
2023-02-27T00:28:16.269Z,59.81
2023-02-27T00:29:17.802Z,60.37
2023-02-27T00:30:20.307Z,60.03
2023-02-27T00:31:22.044Z,60.06
2023-02-27T00:32:29.302Z,60.14
2023-02-27T00:33:32.481Z,60.20
2023-02-27T00:34:35.852Z,60.44
2023-02-27T00:35:43.724Z,60.35
2023-02-27T00:36:46.271Z,60.57
2023-02-27T00:37:48.231Z,59.87
2023-02-27T00:38:52.077Z,60.54
2023-02-27T00:40:05.303Z,60.45
2023-02-27T00:41:06.876Z,60.27
2023-02-27T00:42:09.417Z,60.28
2023-02-27T00:43:10.951Z,60.60
2023-02-27T00:44:13.457Z,60.64
2023-02-27T00:45:15.485Z,60.67
2023-02-27T00:46:19.557Z,60.62
2023-02-27T00:47:21.595Z,60.72
2023-02-27T00:48:24.171Z,60.86
2023-02-27T00:49:26.057Z,61.00
2023-02-27T00:50:28.582Z,60.82
2023-02-27T00:51:30.139Z,60.92
2023-02-27T00:52:34.503Z,61.09
2023-02-27T00:53:37.038Z,61.09
2023-02-27T00:54:39.927Z,60.91
2023-02-27T00:55:42.433Z,60.88
2023-02-27T00:56:44.061Z,61.38
2023-02-27T00:57:46.631Z,61.41
2023-02-27T00:58:49.314Z,61.05
2023-02-27T00:59:52.157Z,61.17
2023-02-27T01:00:53.717Z,60.92
2023-02-27T01:01:56.273Z,61.25
2023-02-27T01:02:58.805Z,61.42
2023-02-27T01:04:00.395Z,61.67
2023-02-27T01:05:03.723Z,61.27
2023-02-27T01:06:05.831Z,61.86
2023-02-27T01:07:08.894Z,62.10
2023-02-27T01:08:10.513Z,61.66
2023-02-27T01:09:13.285Z,61.76
2023-02-27T01:10:16.672Z,61.90
2023-02-27T01:11:19.517Z,61.79
2023-02-27T01:12:21.054Z,61.51
2023-02-27T01:13:24.096Z,62.12
2023-02-27T01:14:25.979Z,61.59
2023-02-27T01:15:28.517Z,61.99
2023-02-27T01:16:30.411Z,61.74
2023-02-27T01:17:33.006Z,61.96
2023-02-27T01:18:34.518Z,62.10
2023-02-27T01:19:37.052Z,62.07
2023-02-27T01:20:38.644Z,62.21
2023-02-27T01:21:41.978Z,62.79
2023-02-27T01:22:43.774Z,62.13
2023-02-27T01:23:46.467Z,62.48
2023-02-27T01:24:48.126Z,62.68
2023-02-27T01:25:51.958Z,62.70
2023-02-27T01:26:53.623Z,62.37
2023-02-27T01:27:56.162Z,62.48
2023-02-27T01:28:57.705Z,62.65
2023-02-27T01:30:00.333Z,62.50
2023-02-27T01:31:02.069Z,62.84
2023-02-27T01:32:04.831Z,62.74
2023-02-27T01:33:06.615Z,62.41
2023-02-27T01:34:09.318Z,62.96
2023-02-27T01:35:11.103Z,62.66
2023-02-27T01:36:13.612Z,63.05
2023-02-27T01:37:15.158Z,62.72
2023-02-27T01:38:17.702Z,62.96
2023-02-27T01:39:19.574Z,63.32
2023-02-27T01:40:22.582Z,63.08
2023-02-27T01:41:25.823Z,62.98
2023-02-27T01:42:29.917Z,63.34
2023-02-27T01:43:32.370Z,63.04
2023-02-27T01:45:13.461Z,63.30
2023-02-27T01:46:15.055Z,63.26
2023-02-27T01:47:18.395Z,63.55
2023-02-27T01:48:23.148Z,63.62
2023-02-27T01:49:30.354Z,63.68
2023-02-27T01:50:33.074Z,63.53
2023-02-27T01:51:38.981Z,63.30
2023-02-27T01:52:41.961Z,63.34
2023-02-27T01:53:47.441Z,63.71
2023-02-27T01:54:49.042Z,63.92
2023-02-27T01:55:53.520Z,63.71
2023-02-27T01:56:56.894Z,63.84
2023-02-27T01:58:00.066Z,63.73
2023-02-27T01:59:04.581Z,64.13
2023-02-27T02:00:08.653Z,64.17
2023-02-27T02:01:20.942Z,64.28
2023-02-27T02:02:29.525Z,64.02
2023-02-27T02:03:38.726Z,64.29
2023-02-27T02:04:41.263Z,64.07
2023-02-27T02:05:46.743Z,63.92
2023-02-27T02:06:54.384Z,64.25
2023-02-27T02:07:56.978Z,64.50
2023-02-27T02:09:01.652Z,64.25
2023-02-27T02:10:07.952Z,64.36
2023-02-27T02:11:21.560Z,64.29
2023-02-27T02:12:27.891Z,64.42
2023-02-27T02:13:30.736Z,64.37
2023-02-27T02:14:32.326Z,64.51
2023-02-27T02:15:38.856Z,64.33
2023-02-27T02:16:59.300Z,64.58
2023-02-27T02:18:14.980Z,64.82
2023-02-27T02:19:48.265Z,64.56
2023-02-27T02:21:18.039Z,64.50
2023-02-27T02:22:45.701Z,64.69
2023-02-27T02:24:24.553Z,64.81
2023-02-27T02:25:49.159Z,64.95
2023-02-27T02:26:59.626Z,65.01
2023-02-27T02:28:15.644Z,65.37
2023-02-27T02:29:58.182Z,65.26
2023-02-27T02:31:29.440Z,64.79
2023-02-27T02:32:57.218Z,65.40
2023-02-27T02:34:30.730Z,65.02
2023-02-27T02:36:07.737Z,64.91
2023-02-27T02:37:34.507Z,64.88
2023-02-27T02:38:50.561Z,65.20
2023-02-27T02:40:06.822Z,65.19
2023-02-27T02:41:15.416Z,65.12
2023-02-27T02:42:22.986Z,65.32
2023-02-27T02:43:28.349Z,65.46
2023-02-27T02:44:41.197Z,65.39
2023-02-27T02:45:50.206Z,65.90
2023-02-27T02:47:02.812Z,65.50
2023-02-27T02:48:12.372Z,65.68
2023-02-27T02:49:24.278Z,66.05
2023-02-27T02:50:30.962Z,66.20
2023-02-27T02:51:39.075Z,65.66
2023-02-27T02:52:54.855Z,65.96
2023-02-27T02:54:05.289Z,66.01
2023-02-27T02:55:12.494Z,66.55
2023-02-27T02:56:20.990Z,66.12
2023-02-27T02:57:29.330Z,66.38
2023-02-27T02:58:37.881Z,66.06
2023-02-27T02:59:44.612Z,66.28
2023-02-27T03:00:53.489Z,66.81
2023-02-27T03:02:02.507Z,66.72
2023-02-27T03:03:13.617Z,66.36
2023-02-27T03:04:21.527Z,66.93
2023-02-27T03:05:29.222Z,66.31
2023-02-27T03:06:34.108Z,66.58
2023-02-27T03:07:41.788Z,66.76
2023-02-27T03:08:49.256Z,66.76
2023-02-27T03:09:59.097Z,66.95
2023-02-27T03:11:03.535Z,66.89
2023-02-27T03:12:11.426Z,67.34
2023-02-27T03:13:20.093Z,67.36
2023-02-27T03:14:28.283Z,66.92
2023-02-27T03:15:36.128Z,67.30
2023-02-27T03:16:42.645Z,67.43
2023-02-27T03:17:51.332Z,67.17
2023-02-27T03:18:56.703Z,67.80
2023-02-27T03:20:03.964Z,67.59
2023-02-27T03:21:10.586Z,67.93
2023-02-27T03:22:18.114Z,67.27
2023-02-27T03:23:23.939Z,67.22
2023-02-27T03:24:31.105Z,67.63
2023-02-27T03:25:36.002Z,67.61
2023-02-27T03:26:43.382Z,68.17
2023-02-27T03:27:49.753Z,67.44
2023-02-27T03:28:56.921Z,67.61
2023-02-27T03:30:03.254Z,68.24
2023-02-27T03:31:10.754Z,67.98
2023-02-27T03:32:17.544Z,68.17
2023-02-27T03:33:25.554Z,68.09
2023-02-27T03:34:29.952Z,68.08
2023-02-27T03:35:42.534Z,68.03
2023-02-27T03:36:49.083Z,68.06
2023-02-27T03:38:00.086Z,68.43
2023-02-27T03:39:07.927Z,68.79
2023-02-27T03:40:25.717Z,69.00
2023-02-27T03:41:32.846Z,68.29
2023-02-27T03:42:39.740Z,68.29
2023-02-27T03:43:48.308Z,68.15
2023-02-27T03:44:58.911Z,68.92
2023-02-27T03:46:07.028Z,68.85
2023-02-27T03:47:09.584Z,68.59
2023-02-27T03:48:12.097Z,69.15
2023-02-27T03:49:14.743Z,68.63
2023-02-27T03:50:17.022Z,68.87
2023-02-27T03:51:22.556Z,69.11
2023-02-27T03:52:27.166Z,69.09
2023-02-27T03:53:35.690Z,69.09
2023-02-27T03:54:44.109Z,68.86
2023-02-27T03:55:48.491Z,69.33
2023-02-27T03:56:57.703Z,68.85
2023-02-27T03:58:00.604Z,69.29
2023-02-27T03:59:02.552Z,69.37
2023-02-27T04:00:07.577Z,69.70
2023-02-27T04:01:14.547Z,68.83
2023-02-27T04:02:17.371Z,69.00
2023-02-27T04:03:18.958Z,68.74
2023-02-27T04:04:22.271Z,69.20
2023-02-27T04:05:24.148Z,69.05
2023-02-27T04:06:43.552Z,69.24
2023-02-27T04:08:07.333Z,68.91
2023-02-27T04:09:22.761Z,68.89
2023-02-27T04:10:41.830Z,69.59
2023-02-27T04:12:08.964Z,69.18
2023-02-27T04:13:28.572Z,68.91
2023-02-27T04:14:42.996Z,69.35
2023-02-27T04:16:00.513Z,69.18
2023-02-27T04:17:14.901Z,69.06
2023-02-27T04:18:23.254Z,69.48
2023-02-27T04:19:38.930Z,69.25
2023-02-27T04:20:45.688Z,68.97
2023-02-27T04:21:56.659Z,69.69
2023-02-27T04:23:08.493Z,69.60
2023-02-27T04:24:20.457Z,69.75
2023-02-27T04:25:39.579Z,69.32
2023-02-27T04:26:46.486Z,69.26
2023-02-27T04:28:10.423Z,69.54
2023-02-27T04:29:18.143Z,69.62
2023-02-27T04:30:28.818Z,69.77
2023-02-27T04:31:37.909Z,69.46
2023-02-27T04:32:45.566Z,70.15
2023-02-27T04:33:55.539Z,69.58
2023-02-27T04:34:59.996Z,70.19
2023-02-27T04:36:11.316Z,69.37
2023-02-27T04:37:22.384Z,69.48
2023-02-27T04:38:32.142Z,69.71
2023-02-27T04:39:38.447Z,69.61
2023-02-27T04:40:45.433Z,69.66
2023-02-27T04:41:52.601Z,70.36
2023-02-27T04:42:58.227Z,69.92
2023-02-27T04:44:05.215Z,70.31
2023-02-27T04:45:14.193Z,70.07
2023-02-27T04:46:22.164Z,69.60
2023-02-27T04:47:28.964Z,69.87
2023-02-27T04:48:36.954Z,69.94
2023-02-27T04:49:44.700Z,70.22
2023-02-27T04:50:51.144Z,70.01
2023-02-27T04:51:58.103Z,70.28
2023-02-27T04:53:05.530Z,70.40
2023-02-27T04:54:12.458Z,70.47
2023-02-27T04:55:17.794Z,69.78
2023-02-27T04:56:24.626Z,70.25
2023-02-27T04:57:34.200Z,70.42
2023-02-27T04:58:39.972Z,69.85
2023-02-27T04:59:46.894Z,70.16
2023-02-27T05:00:54.354Z,69.92
2023-02-27T05:01:59.929Z,70.16
2023-02-27T05:03:10.113Z,70.49
2023-02-27T05:04:15.858Z,70.50
2023-02-27T05:05:22.570Z,70.04
2023-02-27T05:06:29.694Z,70.38
2023-02-27T05:07:36.305Z,70.57
2023-02-27T05:08:44.953Z,70.29
2023-02-27T05:09:51.637Z,70.66
2023-02-27T05:10:58.603Z,70.67
2023-02-27T05:12:04.633Z,70.32
2023-02-27T05:13:11.937Z,70.78
2023-02-27T05:14:18.190Z,70.09
2023-02-27T05:15:28.672Z,70.34
2023-02-27T05:16:36.377Z,69.95
2023-02-27T05:17:47.077Z,70.88
2023-02-27T05:18:49.480Z,70.94
2023-02-27T05:20:02.138Z,70.05
2023-02-27T05:21:15.596Z,70.85
2023-02-27T05:22:28.881Z,70.65
2023-02-27T05:23:36.553Z,70.70
2023-02-27T05:24:48.284Z,70.84
2023-02-27T05:25:55.970Z,70.53
2023-02-27T05:27:19.532Z,70.73
2023-02-27T05:28:26.440Z,71.13
2023-02-27T05:29:36.785Z,70.24
2023-02-27T05:30:49.053Z,71.21
2023-02-27T05:31:55.184Z,70.58
2023-02-27T05:33:02.754Z,70.49
2023-02-27T05:34:11.692Z,70.72
2023-02-27T05:35:21.067Z,70.46
2023-02-27T05:36:28.119Z,71.19
2023-02-27T05:37:33.965Z,70.91
2023-02-27T05:38:41.158Z,70.85
2023-02-27T05:39:54.189Z,70.96
2023-02-27T05:41:00.974Z,71.25
2023-02-27T05:42:08.717Z,70.38
2023-02-27T05:43:16.308Z,71.07
2023-02-27T05:44:31.442Z,71.61
2023-02-27T05:45:36.826Z,70.81
2023-02-27T05:46:45.883Z,70.94
2023-02-27T05:47:55.694Z,71.35
2023-02-27T05:49:02.621Z,71.29
2023-02-27T05:50:08.034Z,71.36
2023-02-27T05:51:14.681Z,71.51
2023-02-27T05:52:22.126Z,71.23
2023-02-27T05:53:30.821Z,71.51
2023-02-27T05:54:36.581Z,71.62
2023-02-27T05:55:42.539Z,71.41
2023-02-27T05:56:47.554Z,70.88
2023-02-27T05:57:54.120Z,71.70
2023-02-27T05:59:00.755Z,71.13
2023-02-27T06:00:09.182Z,71.75
2023-02-27T06:01:17.985Z,71.01
2023-02-27T06:02:26.558Z,71.33
2023-02-27T06:03:30.768Z,71.38
2023-02-27T06:04:34.172Z,71.53
2023-02-27T06:05:37.585Z,70.91
2023-02-27T06:06:41.765Z,71.38
2023-02-27T06:07:43.457Z,71.46
2023-02-27T06:08:52.128Z,71.27
2023-02-27T06:09:53.727Z,71.44
2023-02-27T06:10:56.657Z,71.85
2023-02-27T06:12:01.245Z,71.42
2023-02-27T06:13:03.936Z,71.13
2023-02-27T06:14:05.449Z,71.29
2023-02-27T06:15:09.196Z,71.43
2023-02-27T06:16:13.636Z,71.52
2023-02-27T06:17:15.446Z,71.59
2023-02-27T06:18:20.053Z,71.40
2023-02-27T06:19:21.615Z,72.04
2023-02-27T06:20:24.539Z,71.59
2023-02-27T06:21:26.055Z,71.41
2023-02-27T06:22:28.713Z,71.58
2023-02-27T06:23:31.207Z,71.72
2023-02-27T06:24:33.709Z,72.08
2023-02-27T06:25:35.466Z,71.55
2023-02-27T06:26:37.986Z,71.80
2023-02-27T06:27:39.640Z,71.45
2023-02-27T06:28:42.617Z,72.13
2023-02-27T06:29:45.309Z,71.51
2023-02-27T06:30:46.945Z,71.80
2023-02-27T06:31:49.846Z,71.48
2023-02-27T06:32:51.440Z,72.21
2023-02-27T06:33:55.951Z,71.87
2023-02-27T06:34:58.238Z,71.50
2023-02-27T06:36:01.107Z,72.08
2023-02-27T06:37:04.334Z,72.43
2023-02-27T06:38:07.100Z,72.03
2023-02-27T06:39:08.827Z,71.51
2023-02-27T06:40:12.453Z,72.13
2023-02-27T06:41:14.978Z,71.79
2023-02-27T06:42:16.659Z,71.80
2023-02-27T06:43:19.172Z,71.77
2023-02-27T06:44:21.278Z,72.38
2023-02-27T06:45:24.865Z,72.03
2023-02-27T06:46:28.343Z,71.80
2023-02-27T06:47:30.227Z,72.32
2023-02-27T06:48:32.766Z,71.91
2023-02-27T06:49:36.010Z,72.06
2023-02-27T06:50:38.674Z,72.31
2023-02-27T06:51:41.166Z,72.42
2023-02-27T06:52:42.783Z,72.19
2023-02-27T06:53:45.353Z,71.42
2023-02-27T06:54:46.975Z,71.87
2023-02-27T06:55:49.958Z,72.34
2023-02-27T06:56:52.757Z,72.20
2023-02-27T06:57:54.402Z,72.48
2023-02-27T06:58:59.455Z,71.92
2023-02-27T07:00:02.323Z,72.25
2023-02-27T07:01:07.640Z,71.81
2023-02-27T07:02:10.987Z,71.83
2023-02-27T07:03:21.372Z,72.33
2023-02-27T07:04:22.970Z,72.14
2023-02-27T07:05:26.881Z,71.78
2023-02-27T07:07:34.352Z,72.59
2023-02-27T07:07:51.176Z,71.94
2023-02-27T07:09:01.529Z,71.67
2023-02-27T07:10:12.782Z,72.24
2023-02-27T07:11:14.640Z,72.01
2023-02-27T07:12:17.199Z,71.69
2023-02-27T07:13:19.960Z,71.85
2023-02-27T07:14:21.921Z,71.74
2023-02-27T07:15:24.627Z,71.68
2023-02-27T07:16:26.621Z,71.56
2023-02-27T07:17:29.303Z,72.14
2023-02-27T07:18:31.010Z,72.25
2023-02-27T07:19:35.822Z,72.14
2023-02-27T07:20:39.971Z,71.92
2023-02-27T07:21:42.761Z,72.34
2023-02-27T07:22:45.221Z,71.50
2023-02-27T07:23:47.695Z,72.09
2023-02-27T07:24:49.232Z,72.23
2023-02-27T07:25:51.979Z,72.11
2023-02-27T07:26:54.854Z,71.87
2023-02-27T07:27:57.389Z,72.10
2023-02-27T07:28:58.982Z,71.78
2023-02-27T07:30:01.990Z,72.05
2023-02-27T07:31:04.004Z,71.72
2023-02-27T07:32:06.648Z,71.32
2023-02-27T07:33:08.780Z,71.81
2023-02-27T07:34:11.879Z,71.64
2023-02-27T07:35:14.616Z,71.57
2023-02-27T07:36:18.745Z,71.55
2023-02-27T07:37:20.305Z,72.06
2023-02-27T07:38:23.973Z,71.98
2023-02-27T07:39:25.477Z,71.43
2023-02-27T07:40:28.359Z,71.52
2023-02-27T07:41:31.299Z,71.87
2023-02-27T07:42:32.951Z,72.05
2023-02-27T07:43:35.505Z,71.55
2023-02-27T07:44:37.222Z,71.77
2023-02-27T07:45:39.703Z,71.59
2023-02-27T07:46:41.299Z,71.28
2023-02-27T07:47:43.869Z,71.25
2023-02-27T07:48:46.368Z,71.69
2023-02-27T07:49:48.889Z,71.10
2023-02-27T07:50:51.385Z,71.60
2023-02-27T07:51:55.210Z,71.02
2023-02-27T07:52:56.959Z,71.12
2023-02-27T07:54:00.030Z,71.63
2023-02-27T07:55:01.590Z,71.17
2023-02-27T07:56:04.164Z,71.37
2023-02-27T07:57:05.805Z,70.88
2023-02-27T07:58:08.419Z,71.45
2023-02-27T07:59:10.159Z,70.89
2023-02-27T08:00:15.254Z,70.94
2023-02-27T08:01:20.205Z,70.98
2023-02-27T08:02:21.769Z,70.96
2023-02-27T08:03:24.337Z,71.20
2023-02-27T08:04:25.934Z,71.15
2023-02-27T08:05:28.787Z,70.80
2023-02-27T08:06:30.531Z,70.75
2023-02-27T08:07:34.604Z,70.91
2023-02-27T08:08:36.132Z,70.98
2023-02-27T08:09:38.614Z,71.15
2023-02-27T08:10:40.174Z,70.49
2023-02-27T08:11:42.735Z,70.67
2023-02-27T08:12:44.801Z,70.96
2023-02-27T08:13:59.989Z,70.82
2023-02-27T08:15:04.379Z,71.03
2023-02-27T08:16:07.179Z,70.75
2023-02-27T08:17:10.091Z,70.90
2023-02-27T08:18:12.816Z,70.64
2023-02-27T08:19:15.118Z,70.83
2023-02-27T08:20:17.869Z,70.65
2023-02-27T08:21:19.419Z,70.38
2023-02-27T08:22:22.014Z,70.30
2023-02-27T08:23:25.227Z,69.93
2023-02-27T08:24:28.173Z,70.59
2023-02-27T08:25:31.104Z,70.18
2023-02-27T08:26:33.645Z,70.33
2023-02-27T08:27:36.222Z,70.42
2023-02-27T08:28:37.978Z,70.21
2023-02-27T08:29:40.438Z,70.43
2023-02-27T08:30:42.007Z,70.07
2023-02-27T08:31:45.039Z,70.05
2023-02-27T08:32:46.682Z,69.97
2023-02-27T08:33:55.332Z,69.94
2023-02-27T08:35:00.495Z,69.98
2023-02-27T08:36:04.330Z,69.96
2023-02-27T08:37:06.177Z,69.89
2023-02-27T08:38:09.200Z,70.03
2023-02-27T08:39:12.596Z,69.56
2023-02-27T08:40:15.138Z,69.89
2023-02-27T08:41:16.834Z,70.06
2023-02-27T08:42:19.441Z,69.77
2023-02-27T08:43:21.092Z,69.51
2023-02-27T08:44:23.598Z,69.84
2023-02-27T08:45:26.107Z,69.90
2023-02-27T08:46:28.014Z,69.28
2023-02-27T08:47:30.861Z,69.42
2023-02-27T08:48:32.478Z,69.37
2023-02-27T08:49:35.141Z,69.72
2023-02-27T08:50:36.771Z,69.18
2023-02-27T08:51:39.397Z,69.00
2023-02-27T08:52:42.531Z,69.44
2023-02-27T08:53:45.109Z,69.44
2023-02-27T08:54:48.262Z,69.57
2023-02-27T08:55:51.854Z,69.48
2023-02-27T08:56:53.398Z,69.42
2023-02-27T08:57:56.058Z,68.81
2023-02-27T08:58:57.678Z,68.97
2023-02-27T09:00:00.279Z,69.10
2023-02-27T09:01:02.159Z,68.87
2023-02-27T09:02:04.797Z,69.03
2023-02-27T09:03:07.310Z,68.63
2023-02-27T09:04:09.997Z,68.98
2023-02-27T09:05:11.566Z,69.00
2023-02-27T09:06:14.190Z,68.71
2023-02-27T09:07:15.718Z,68.73
2023-02-27T09:08:18.274Z,68.95
2023-02-27T09:09:20.826Z,68.88
2023-02-27T09:10:24.872Z,68.78
2023-02-27T09:11:28.290Z,68.39
2023-02-27T09:12:31.134Z,68.69
2023-02-27T09:13:33.116Z,68.78
2023-02-27T09:14:35.794Z,68.26
2023-02-27T09:15:38.313Z,68.71
2023-02-27T09:16:39.889Z,68.58
2023-02-27T09:17:42.435Z,68.51
2023-02-27T09:18:44.405Z,68.58
2023-02-27T09:19:46.921Z,68.63
2023-02-27T09:20:48.951Z,68.45
2023-02-27T09:21:51.566Z,68.33
2023-02-27T09:22:53.246Z,68.34
2023-02-27T09:24:02.500Z,68.18
2023-02-27T09:25:10.526Z,68.19
2023-02-27T09:26:13.482Z,68.17
2023-02-27T09:27:16.116Z,67.95
2023-02-27T09:28:17.831Z,68.09
2023-02-27T09:29:21.260Z,67.55
2023-02-27T09:30:24.796Z,67.62
2023-02-27T09:31:27.235Z,67.39
2023-02-27T09:32:30.275Z,67.14
2023-02-27T09:33:32.008Z,67.04
2023-02-27T09:34:34.571Z,67.10
2023-02-27T09:35:36.199Z,66.95
2023-02-27T09:36:38.833Z,66.96
2023-02-27T09:37:41.341Z,66.91
2023-02-27T09:38:43.244Z,66.39
2023-02-27T09:39:46.422Z,66.59
2023-02-27T09:40:50.218Z,66.22
2023-02-27T09:42:02.748Z,66.32
2023-02-27T09:43:14.067Z,65.94
2023-02-27T09:44:39.769Z,65.75
2023-02-27T09:45:51.480Z,65.64
2023-02-27T09:46:54.206Z,65.54
2023-02-27T09:48:00.435Z,65.57
2023-02-27T09:49:03.801Z,65.57
2023-02-27T09:50:09.397Z,65.76
2023-02-27T09:51:11.416Z,65.46
2023-02-27T09:52:15.492Z,65.34
2023-02-27T09:53:26.739Z,65.43
2023-02-27T09:54:34.252Z,65.30
2023-02-27T09:55:40.027Z,65.43
2023-02-27T09:56:49.479Z,65.05
2023-02-27T09:58:01.600Z,64.91
2023-02-27T09:59:13.785Z,64.75
2023-02-27T10:00:38.497Z,64.66
2023-02-27T10:01:44.548Z,64.65
2023-02-27T10:02:56.244Z,64.71
2023-02-27T10:04:28.793Z,64.46
2023-02-27T10:05:39.164Z,64.28
2023-02-27T10:06:43.921Z,64.49
2023-02-27T10:07:53.759Z,64.47
2023-02-27T10:09:08.917Z,64.15
2023-02-27T10:10:23.393Z,64.13
2023-02-27T10:11:36.988Z,63.79
2023-02-27T10:12:49.348Z,64.00
2023-02-27T10:14:00.142Z,63.94
2023-02-27T10:15:06.706Z,63.76
2023-02-27T10:16:13.937Z,63.70
2023-02-27T10:17:21.579Z,63.73
2023-02-27T10:18:30.723Z,63.53
2023-02-27T10:19:38.117Z,63.63
2023-02-27T10:20:47.565Z,63.28
2023-02-27T10:21:54.084Z,63.01
2023-02-27T10:23:00.737Z,63.21
2023-02-27T10:24:12.892Z,62.93
2023-02-27T10:25:30.660Z,63.03
2023-02-27T10:26:39.151Z,62.98
2023-02-27T10:27:43.771Z,62.86
2023-02-27T10:28:46.320Z,62.68
2023-02-27T10:29:51.338Z,62.73
2023-02-27T10:30:58.521Z,62.84
2023-02-27T10:32:06.302Z,62.66
2023-02-27T10:33:13.547Z,62.63
2023-02-27T10:34:16.593Z,62.69
2023-02-27T10:35:29.029Z,62.48
2023-02-27T10:36:34.423Z,62.47
2023-02-27T10:37:40.077Z,62.30
2023-02-27T10:38:45.399Z,62.12
2023-02-27T10:39:49.891Z,62.08
2023-02-27T10:40:52.635Z,62.21
2023-02-27T10:41:54.824Z,61.77
2023-02-27T10:43:01.217Z,61.72
2023-02-27T10:44:02.997Z,61.57
2023-02-27T10:45:14.785Z,61.46
2023-02-27T10:46:22.900Z,61.58
2023-02-27T10:47:26.674Z,61.23
2023-02-27T10:48:29.256Z,61.13
2023-02-27T10:49:32.522Z,61.06
2023-02-27T10:50:38.804Z,60.84
2023-02-27T10:51:40.367Z,60.62
2023-02-27T10:52:50.213Z,60.23
2023-02-27T10:53:53.250Z,60.17
2023-02-27T10:54:55.867Z,60.03
2023-02-27T10:56:01.129Z,59.80
2023-02-27T10:57:07.644Z,59.65
2023-02-27T10:58:20.280Z,59.58
2023-02-27T10:59:27.029Z,59.46
2023-02-27T11:00:47.908Z,59.40
2023-02-27T11:01:52.153Z,59.53
2023-02-27T11:02:55.638Z,59.41
2023-02-27T11:03:58.406Z,59.15
2023-02-27T11:05:01.707Z,59.07
2023-02-27T11:06:09.780Z,59.08
2023-02-27T11:07:16.795Z,58.95
2023-02-27T11:08:23.012Z,58.79
2023-02-27T11:09:27.738Z,59.15
2023-02-27T11:10:30.819Z,58.92
2023-02-27T11:11:32.541Z,58.73
2023-02-27T11:12:36.024Z,58.76
2023-02-27T11:13:40.200Z,58.71
2023-02-27T11:14:53.149Z,58.73
2023-02-27T11:16:10.981Z,58.67
2023-02-27T11:17:22.181Z,58.58
2023-02-27T11:18:29.119Z,58.70
2023-02-27T11:19:34.919Z,58.49
2023-02-27T11:20:43.281Z,58.39
2023-02-27T11:22:01.381Z,58.22
2023-02-27T11:23:06.504Z,58.28
2023-02-27T11:24:20.466Z,58.46
2023-02-27T11:25:25.501Z,58.13
2023-02-27T11:26:33.132Z,58.33
2023-02-27T11:27:35.658Z,58.38
2023-02-27T11:28:37.346Z,58.38
2023-02-27T11:29:58.136Z,58.18
2023-02-27T11:31:03.978Z,57.85
2023-02-27T11:32:14.990Z,57.94
2023-02-27T11:33:19.927Z,57.92
2023-02-27T11:34:26.954Z,58.07
2023-02-27T11:35:32.403Z,57.79
2023-02-27T11:36:43.111Z,57.72
2023-02-27T11:37:50.719Z,57.84
2023-02-27T11:38:55.203Z,57.46
2023-02-27T11:40:04.620Z,57.45
2023-02-27T11:41:09.618Z,57.27
2023-02-27T11:42:22.460Z,57.18
2023-02-27T11:43:27.642Z,57.13
2023-02-27T11:44:50.351Z,56.86
2023-02-27T11:46:05.154Z,56.84
2023-02-27T11:47:26.486Z,56.28
2023-02-27T11:48:30.972Z,56.37
2023-02-27T11:49:39.793Z,56.10
2023-02-27T11:50:58.654Z,56.18
2023-02-27T11:52:10.884Z,56.11
2023-02-27T11:53:30.749Z,55.90
2023-02-27T11:54:38.748Z,56.09
2023-02-27T11:55:41.463Z,55.87
2023-02-27T11:56:47.059Z,55.61
2023-02-27T11:57:55.440Z,55.29
2023-02-27T11:59:03.393Z,55.45
2023-02-27T12:00:17.249Z,55.14
2023-02-27T12:01:29.069Z,54.79
2023-02-27T12:02:43.408Z,54.85
2023-02-27T12:03:50.339Z,54.72
2023-02-27T12:04:57.970Z,54.65
2023-02-27T12:06:04.735Z,54.59
2023-02-27T12:07:17.169Z,54.50
2023-02-27T12:08:25.365Z,54.34
2023-02-27T12:09:36.028Z,54.05
2023-02-27T12:10:48.440Z,54.31
2023-02-27T12:11:51.062Z,54.05
2023-02-27T12:12:59.589Z,53.68
2023-02-27T12:14:12.684Z,54.04
2023-02-27T12:15:27.393Z,53.76
2023-02-27T12:16:35.686Z,54.07
2023-02-27T12:17:43.731Z,53.78
2023-02-27T12:18:50.656Z,53.78
2023-02-27T12:20:01.194Z,53.37
2023-02-27T12:21:11.655Z,53.36
2023-02-27T12:22:19.235Z,53.53
2023-02-27T12:23:29.566Z,53.18
2023-02-27T12:24:38.999Z,53.04
2023-02-27T12:25:46.360Z,53.01
2023-02-27T12:26:56.745Z,52.89
2023-02-27T12:28:03.796Z,52.52
2023-02-27T12:29:18.617Z,52.58
2023-02-27T12:30:27.082Z,52.79
2023-02-27T12:31:51.284Z,52.74
2023-02-27T12:33:03.594Z,52.35
2023-02-27T12:34:16.350Z,52.57
2023-02-27T12:35:23.040Z,52.38
2023-02-27T12:36:25.597Z,52.13
2023-02-27T12:37:31.108Z,52.07
2023-02-27T12:38:35.906Z,52.22
2023-02-27T12:39:40.195Z,52.00
2023-02-27T12:40:50.780Z,52.34
2023-02-27T12:42:26.338Z,52.39
2023-02-27T12:43:40.198Z,52.08
2023-02-27T12:44:56.415Z,52.20
2023-02-27T12:46:25.946Z,51.89
2023-02-27T12:47:37.657Z,52.23
2023-02-27T12:49:11.744Z,51.93
2023-02-27T12:53:23.482Z,51.56
2023-02-27T12:54:40.238Z,51.34
2023-02-27T12:55:49.620Z,51.32
2023-02-27T12:57:11.952Z,51.30
2023-02-27T12:58:30.984Z,51.36
2023-02-27T12:59:48.480Z,51.18
2023-02-27T13:04:09.325Z,50.97
2023-02-27T13:05:32.150Z,51.06
2023-02-27T13:06:41.552Z,51.21
2023-02-27T13:07:52.840Z,50.69
2023-02-27T13:09:07.069Z,50.55
2023-02-27T13:10:16.719Z,50.86
2023-02-27T13:11:24.476Z,50.53
2023-02-27T13:12:34.026Z,50.49
2023-02-27T13:13:40.956Z,50.58
2023-02-27T13:14:50.041Z,50.17
2023-02-27T13:15:59.366Z,50.41
2023-02-27T13:17:05.865Z,50.39
2023-02-27T13:18:17.254Z,50.51
2023-02-27T13:19:27.395Z,50.49
2023-02-27T13:20:37.007Z,50.34
2023-02-27T13:21:45.429Z,50.44
2023-02-27T13:22:53.051Z,50.25
2023-02-27T13:24:12.630Z,50.56
2023-02-27T13:25:16.598Z,50.23
2023-02-27T13:26:23.724Z,50.42
2023-02-27T13:27:29.338Z,49.78
2023-02-27T13:28:32.596Z,50.34
2023-02-27T13:29:39.940Z,50.29
2023-02-27T13:30:45.539Z,50.04
2023-02-27T13:31:55.372Z,49.82
2023-02-27T13:33:12.157Z,49.77
2023-02-27T13:34:20.984Z,49.88
2023-02-27T13:35:36.046Z,50.21
2023-02-27T13:36:42.624Z,50.05
2023-02-27T13:37:53.065Z,50.02
2023-02-27T13:38:56.524Z,49.79
2023-02-27T13:40:01.548Z,49.87
2023-02-27T13:41:39.251Z,49.90
2023-02-27T13:42:53.737Z,50.24
2023-02-27T13:43:57.075Z,50.21
2023-02-27T13:45:00.686Z,50.33
2023-02-27T13:46:04.563Z,50.05
2023-02-27T13:47:48.603Z,50.10
2023-02-27T13:48:53.646Z,50.05
2023-02-27T13:49:55.689Z,50.12
2023-02-27T13:50:59.682Z,49.98
2023-02-27T13:52:03.114Z,50.05
2023-02-27T13:53:10.633Z,50.31
2023-02-27T13:54:21.878Z,50.14
2023-02-27T13:55:28.544Z,49.89
2023-02-27T13:56:31.067Z,49.90
2023-02-27T13:57:35.297Z,49.70
2023-02-27T13:58:45.036Z,50.00
2023-02-27T13:59:54.044Z,49.83
2023-02-27T14:01:00.962Z,49.48
2023-02-27T14:02:06.853Z,50.00
2023-02-27T14:03:19.273Z,49.65
2023-02-27T14:04:22.295Z,49.76
2023-02-27T14:05:36.287Z,49.88
2023-02-27T14:06:46.207Z,49.86
2023-02-27T14:07:55.252Z,49.38
2023-02-27T14:09:14.112Z,49.64
2023-02-27T14:10:22.637Z,49.49
2023-02-27T14:11:29.374Z,49.46
2023-02-27T14:12:44.420Z,49.48
2023-02-27T14:14:08.047Z,49.08
2023-02-27T14:15:50.253Z,49.09
2023-02-27T14:17:03.379Z,48.92
2023-02-27T14:18:17.934Z,49.15
2023-02-27T14:19:45.173Z,49.20
2023-02-27T14:20:51.340Z,48.67
2023-02-27T14:22:00.290Z,48.99
2023-02-27T14:23:21.595Z,48.79
2023-02-27T14:24:28.809Z,48.85
2023-02-27T14:25:39.196Z,49.00
2023-02-27T14:26:41.660Z,48.85
2023-02-27T14:27:51.661Z,48.78
2023-02-27T14:28:58.002Z,48.63
2023-02-27T14:30:05.143Z,49.27
2023-02-27T14:31:11.832Z,48.81